sensor_id;sensor_type;location;lat;lon;timestamp;P1;durP1;ratioP1;P2;durP2;ratioP2
40601;SDS011;26310;50.278;19.032;2023-03-12T00:02:19;5.80;;;3.70;;
40601;SDS011;26310;50.278;19.032;2023-03-12T00:07:23;3.40;;;2.77;;
40601;SDS011;26310;50.278;19.032;2023-03-12T00:12:25;4.47;;;3.87;;
40601;SDS011;26310;50.278;19.032;2023-03-12T00:17:28;4.87;;;4.10;;
40601;SDS011;26310;50.278;19.032;2023-03-12T00:22:32;5.20;;;4.70;;
40601;SDS011;26310;50.278;19.032;2023-03-12T00:27:35;6.83;;;4.37;;
40601;SDS011;26310;50.278;19.032;2023-03-12T05:35:18;4.83;;;3.70;;
40601;SDS011;26310;50.278;19.032;2023-03-12T05:40:21;5.73;;;5.23;;
40601;SDS011;26310;50.278;19.032;2023-03-12T05:45:24;5.43;;;3.87;;
40601;SDS011;26310;50.278;19.032;2023-03-12T05:50:27;7.83;;;4.20;;
40601;SDS011;26310;50.278;19.032;2023-03-12T05:55:33;4.13;;;2.87;;
40601;SDS011;26310;50.278;19.032;2023-03-12T06:00:37;3.63;;;3.20;;
40601;SDS011;26310;50.278;19.032;2023-03-12T06:05:42;7.80;;;4.53;;
40601;SDS011;26310;50.278;19.032;2023-03-12T06:10:48;3.97;;;3.17;;
40601;SDS011;26310;50.278;19.032;2023-03-12T06:15:52;4.77;;;3.33;;
40601;SDS011;26310;50.278;19.032;2023-03-12T06:20:55;4.63;;;3.03;;
40601;SDS011;26310;50.278;19.032;2023-03-12T06:26:19;5.17;;;2.87;;
40601;SDS011;26310;50.278;19.032;2023-03-12T06:31:23;5.33;;;4.10;;
40601;SDS011;26310;50.278;19.032;2023-03-12T06:36:26;4.90;;;3.73;;
40601;SDS011;26310;50.278;19.032;2023-03-12T06:41:29;13.07;;;4.73;;
40601;SDS011;26310;50.278;19.032;2023-03-12T06:46:32;6.23;;;4.60;;
40601;SDS011;26310;50.278;19.032;2023-03-12T06:51:35;8.03;;;3.83;;
40601;SDS011;26310;50.278;19.032;2023-03-12T06:56:38;5.17;;;3.63;;
40601;SDS011;26310;50.278;19.032;2023-03-12T07:01:41;2.57;;;2.23;;
40601;SDS011;26310;50.278;19.032;2023-03-12T07:06:44;4.33;;;3.60;;
40601;SDS011;26310;50.278;19.032;2023-03-12T07:11:51;4.20;;;2.53;;
40601;SDS011;26310;50.278;19.032;2023-03-12T07:16:54;9.03;;;4.20;;
40601;SDS011;26310;50.278;19.032;2023-03-12T07:21:58;3.53;;;2.80;;
40601;SDS011;26310;50.278;19.032;2023-03-12T07:27:01;3.03;;;2.50;;
40601;SDS011;26310;50.278;19.032;2023-03-12T07:32:05;2.17;;;1.97;;
40601;SDS011;26310;50.278;19.032;2023-03-12T07:37:08;3.47;;;3.10;;
40601;SDS011;26310;50.278;19.032;2023-03-12T07:42:11;4.50;;;3.20;;
40601;SDS011;26310;50.278;19.032;2023-03-12T07:47:14;2.70;;;2.30;;
40601;SDS011;26310;50.278;19.032;2023-03-12T07:52:25;2.73;;;2.30;;
40601;SDS011;26310;50.278;19.032;2023-03-12T07:57:28;5.37;;;2.77;;
40601;SDS011;26310;50.278;19.032;2023-03-12T08:02:32;6.67;;;3.57;;
40601;SDS011;26310;50.278;19.032;2023-03-12T08:07:35;2.47;;;2.27;;
40601;SDS011;26310;50.278;19.032;2023-03-12T08:12:38;3.07;;;2.77;;
40601;SDS011;26310;50.278;19.032;2023-03-12T08:17:41;4.27;;;3.17;;
40601;SDS011;26310;50.278;19.032;2023-03-12T08:22:45;2.90;;;2.67;;
40601;SDS011;26310;50.278;19.032;2023-03-12T08:27:48;5.47;;;2.93;;
40601;SDS011;26310;50.278;19.032;2023-03-12T08:32:51;4.23;;;2.97;;
40601;SDS011;26310;50.278;19.032;2023-03-12T08:37:54;2.77;;;2.57;;
40601;SDS011;26310;50.278;19.032;2023-03-12T08:42:58;3.67;;;2.43;;
40601;SDS011;26310;50.278;19.032;2023-03-12T08:48:01;4.83;;;4.07;;
40601;SDS011;26310;50.278;19.032;2023-03-12T08:53:04;3.07;;;2.20;;
40601;SDS011;26310;50.278;19.032;2023-03-12T08:58:08;5.83;;;3.13;;
40601;SDS011;26310;50.278;19.032;2023-03-12T09:03:11;3.63;;;2.93;;
40601;SDS011;26310;50.278;19.032;2023-03-12T09:08:16;6.53;;;3.23;;
40601;SDS011;26310;50.278;19.032;2023-03-12T09:13:19;3.53;;;2.30;;
40601;SDS011;26310;50.278;19.032;2023-03-12T09:18:22;2.40;;;2.20;;
40601;SDS011;26310;50.278;19.032;2023-03-12T09:23:25;3.63;;;2.50;;
40601;SDS011;26310;50.278;19.032;2023-03-12T09:28:28;3.33;;;2.20;;
40601;SDS011;26310;50.278;19.032;2023-03-12T09:33:31;1.90;;;1.80;;
40601;SDS011;26310;50.278;19.032;2023-03-12T09:38:36;2.63;;;2.20;;
40601;SDS011;26310;50.278;19.032;2023-03-12T09:43:53;3.33;;;2.87;;
40601;SDS011;26310;50.278;19.032;2023-03-12T09:49:00;2.63;;;2.27;;
40601;SDS011;26310;50.278;19.032;2023-03-12T09:54:07;2.67;;;2.30;;
40601;SDS011;26310;50.278;19.032;2023-03-12T09:59:35;2.77;;;2.40;;
40601;SDS011;26310;50.278;19.032;2023-03-12T10:04:43;3.80;;;2.13;;
40601;SDS011;26310;50.278;19.032;2023-03-12T10:10:13;4.87;;;2.87;;
40601;SDS011;26310;50.278;19.032;2023-03-12T10:31:00;2.87;;;1.63;;
40601;SDS011;26310;50.278;19.032;2023-03-12T10:36:10;1.70;;;1.30;;
40601;SDS011;26310;50.278;19.032;2023-03-12T10:41:23;2.00;;;1.80;;
40601;SDS011;26310;50.278;19.032;2023-03-12T10:57:06;1.47;;;1.37;;
40601;SDS011;26310;50.278;19.032;2023-03-12T11:07:33;1.97;;;1.70;;
40601;SDS011;26310;50.278;19.032;2023-03-12T11:12:37;3.40;;;2.03;;
40601;SDS011;26310;50.278;19.032;2023-03-12T11:18:05;2.60;;;1.90;;
40601;SDS011;26310;50.278;19.032;2023-03-12T11:23:23;3.40;;;2.00;;
40601;SDS011;26310;50.278;19.032;2023-03-12T11:29:03;3.40;;;2.30;;
40601;SDS011;26310;50.278;19.032;2023-03-12T11:34:09;3.37;;;1.80;;
40601;SDS011;26310;50.278;19.032;2023-03-12T11:39:35;1.93;;;1.80;;
40601;SDS011;26310;50.278;19.032;2023-03-12T12:06:15;3.13;;;1.57;;
40601;SDS011;26310;50.278;19.032;2023-03-12T12:11:40;3.43;;;2.73;;
40601;SDS011;26310;50.278;19.032;2023-03-12T12:22:23;3.40;;;1.87;;
40601;SDS011;26310;50.278;19.032;2023-03-12T12:27:43;3.77;;;2.77;;
40601;SDS011;26310;50.278;19.032;2023-03-12T12:33:18;2.23;;;1.97;;
40601;SDS011;26310;50.278;19.032;2023-03-12T12:38:38;2.60;;;2.10;;
40601;SDS011;26310;50.278;19.032;2023-03-12T12:44:13;2.80;;;2.30;;
40601;SDS011;26310;50.278;19.032;2023-03-12T12:49:47;2.63;;;1.83;;
40601;SDS011;26310;50.278;19.032;2023-03-12T13:10:55;3.00;;;2.10;;
40601;SDS011;26310;50.278;19.032;2023-03-12T13:16:26;2.33;;;1.73;;
40601;SDS011;26310;50.278;19.032;2023-03-12T13:21:38;2.83;;;2.03;;
40601;SDS011;26310;50.278;19.032;2023-03-12T13:32:35;2.47;;;2.07;;
40601;SDS011;26310;50.278;19.032;2023-03-12T13:48:18;1.53;;;1.40;;
40601;SDS011;26310;50.278;19.032;2023-03-12T13:53:23;2.93;;;2.27;;
40601;SDS011;26310;50.278;19.032;2023-03-12T13:58:47;2.07;;;1.57;;
40601;SDS011;26310;50.278;19.032;2023-03-12T14:04:00;2.97;;;1.80;;
40601;SDS011;26310;50.278;19.032;2023-03-12T14:19:46;5.20;;;2.73;;
40601;SDS011;26310;50.278;19.032;2023-03-12T14:24:52;2.83;;;2.50;;
40601;SDS011;26310;50.278;19.032;2023-03-12T14:29:58;2.27;;;2.00;;
40601;SDS011;26310;50.278;19.032;2023-03-12T14:45:52;4.30;;;2.43;;
40601;SDS011;26310;50.278;19.032;2023-03-12T14:51:04;2.47;;;2.27;;
40601;SDS011;26310;50.278;19.032;2023-03-12T14:56:12;4.63;;;3.20;;
40601;SDS011;26310;50.278;19.032;2023-03-12T15:01:26;5.07;;;3.10;;
40601;SDS011;26310;50.278;19.032;2023-03-12T15:06:34;4.90;;;2.83;;
40601;SDS011;26310;50.278;19.032;2023-03-12T15:11:39;3.17;;;2.67;;
40601;SDS011;26310;50.278;19.032;2023-03-12T15:16:42;4.13;;;2.90;;
40601;SDS011;26310;50.278;19.032;2023-03-12T15:21:45;4.67;;;3.27;;
40601;SDS011;26310;50.278;19.032;2023-03-12T15:26:55;3.33;;;2.93;;
40601;SDS011;26310;50.278;19.032;2023-03-12T15:31:59;3.83;;;3.07;;
40601;SDS011;26310;50.278;19.032;2023-03-12T15:37:24;2.63;;;2.33;;
40601;SDS011;26310;50.278;19.032;2023-03-12T15:42:42;4.93;;;2.27;;
40601;SDS011;26310;50.278;19.032;2023-03-12T15:47:47;5.20;;;3.07;;
40601;SDS011;26310;50.278;19.032;2023-03-12T15:58:25;2.30;;;2.10;;
40601;SDS011;26310;50.278;19.032;2023-03-12T16:03:30;3.83;;;2.33;;
40601;SDS011;26310;50.278;19.032;2023-03-12T16:08:40;4.00;;;2.73;;
40601;SDS011;26310;50.278;19.032;2023-03-12T16:13:46;6.80;;;2.80;;
40601;SDS011;26310;50.278;19.032;2023-03-12T16:18:50;5.80;;;3.60;;
40601;SDS011;26310;50.278;19.032;2023-03-12T16:23:53;4.87;;;3.27;;
40601;SDS011;26310;50.278;19.032;2023-03-12T16:28:56;4.37;;;3.33;;
40601;SDS011;26310;50.278;19.032;2023-03-12T16:33:59;4.70;;;3.57;;
40601;SDS011;26310;50.278;19.032;2023-03-12T16:39:02;4.53;;;3.13;;
40601;SDS011;26310;50.278;19.032;2023-03-12T16:44:06;2.83;;;2.47;;
40601;SDS011;26310;50.278;19.032;2023-03-12T16:49:13;6.90;;;2.93;;
40601;SDS011;26310;50.278;19.032;2023-03-12T16:54:17;4.80;;;3.10;;
40601;SDS011;26310;50.278;19.032;2023-03-12T17:04:27;5.37;;;3.37;;
40601;SDS011;26310;50.278;19.032;2023-03-12T17:09:30;4.47;;;3.40;;
40601;SDS011;26310;50.278;19.032;2023-03-12T17:14:33;10.27;;;4.57;;
40601;SDS011;26310;50.278;19.032;2023-03-12T17:19:36;2.97;;;2.67;;
40601;SDS011;26310;50.278;19.032;2023-03-12T17:24:39;5.17;;;3.73;;
40601;SDS011;26310;50.278;19.032;2023-03-12T17:29:42;9.13;;;3.47;;
40601;SDS011;26310;50.278;19.032;2023-03-12T17:34:44;6.40;;;4.07;;
40601;SDS011;26310;50.278;19.032;2023-03-12T17:39:50;5.23;;;3.43;;
40601;SDS011;26310;50.278;19.032;2023-03-12T17:44:53;6.20;;;3.47;;
40601;SDS011;26310;50.278;19.032;2023-03-12T17:49:56;5.37;;;3.33;;
40601;SDS011;26310;50.278;19.032;2023-03-12T17:54:59;6.73;;;3.90;;
40601;SDS011;26310;50.278;19.032;2023-03-12T18:00:02;4.10;;;3.50;;
40601;SDS011;26310;50.278;19.032;2023-03-12T18:05:12;4.17;;;3.13;;
40601;SDS011;26310;50.278;19.032;2023-03-12T18:10:15;4.50;;;3.77;;
40601;SDS011;26310;50.278;19.032;2023-03-12T18:15:18;2.87;;;2.53;;
40601;SDS011;26310;50.278;19.032;2023-03-12T18:20:21;3.77;;;3.00;;
40601;SDS011;26310;50.278;19.032;2023-03-12T18:25:38;3.70;;;2.97;;
40601;SDS011;26310;50.278;19.032;2023-03-12T18:30:44;5.63;;;3.43;;
40601;SDS011;26310;50.278;19.032;2023-03-12T18:35:47;3.50;;;2.63;;
40601;SDS011;26310;50.278;19.032;2023-03-12T18:40:50;5.70;;;2.60;;
40601;SDS011;26310;50.278;19.032;2023-03-12T18:45:54;4.40;;;3.23;;
40601;SDS011;26310;50.278;19.032;2023-03-12T18:50:57;6.33;;;3.57;;
40601;SDS011;26310;50.278;19.032;2023-03-12T18:56:00;5.83;;;3.27;;
40601;SDS011;26310;50.278;19.032;2023-03-12T19:01:03;3.03;;;2.40;;
40601;SDS011;26310;50.278;19.032;2023-03-12T19:06:13;4.93;;;3.03;;
40601;SDS011;26310;50.278;19.032;2023-03-12T19:11:17;4.73;;;2.90;;
40601;SDS011;26310;50.278;19.032;2023-03-12T19:16:20;8.30;;;3.17;;
40601;SDS011;26310;50.278;19.032;2023-03-12T19:21:23;4.60;;;2.87;;
40601;SDS011;26310;50.278;19.032;2023-03-12T19:26:26;4.70;;;2.83;;
40601;SDS011;26310;50.278;19.032;2023-03-12T19:31:29;5.93;;;3.50;;
40601;SDS011;26310;50.278;19.032;2023-03-12T19:36:32;5.50;;;2.93;;
40601;SDS011;26310;50.278;19.032;2023-03-12T19:41:35;5.23;;;3.03;;
40601;SDS011;26310;50.278;19.032;2023-03-12T19:46:38;6.70;;;3.80;;
40601;SDS011;26310;50.278;19.032;2023-03-12T19:51:43;7.20;;;3.30;;
40601;SDS011;26310;50.278;19.032;2023-03-12T19:56:46;4.60;;;3.03;;
40601;SDS011;26310;50.278;19.032;2023-03-12T20:01:49;5.70;;;3.27;;
40601;SDS011;26310;50.278;19.032;2023-03-12T20:06:52;7.13;;;4.13;;
40601;SDS011;26310;50.278;19.032;2023-03-12T20:11:55;6.87;;;3.47;;
40601;SDS011;26310;50.278;19.032;2023-03-12T20:16:57;5.10;;;3.73;;
40601;SDS011;26310;50.278;19.032;2023-03-12T20:22:00;5.17;;;4.37;;
40601;SDS011;26310;50.278;19.032;2023-03-12T20:27:03;9.23;;;4.80;;
40601;SDS011;26310;50.278;19.032;2023-03-12T20:32:09;4.80;;;3.43;;
40601;SDS011;26310;50.278;19.032;2023-03-12T20:37:13;5.87;;;3.97;;
40601;SDS011;26310;50.278;19.032;2023-03-12T20:42:15;9.53;;;3.43;;
40601;SDS011;26310;50.278;19.032;2023-03-12T20:47:18;6.47;;;3.97;;
40601;SDS011;26310;50.278;19.032;2023-03-12T20:52:21;7.00;;;3.37;;
40601;SDS011;26310;50.278;19.032;2023-03-12T20:57:24;6.17;;;3.03;;
40601;SDS011;26310;50.278;19.032;2023-03-12T21:02:27;5.53;;;3.20;;
40601;SDS011;26310;50.278;19.032;2023-03-12T21:07:30;5.10;;;3.67;;
40601;SDS011;26310;50.278;19.032;2023-03-12T21:12:33;4.43;;;2.93;;
40601;SDS011;26310;50.278;19.032;2023-03-12T21:17:36;5.57;;;2.87;;
40601;SDS011;26310;50.278;19.032;2023-03-12T21:22:40;6.17;;;3.33;;
40601;SDS011;26310;50.278;19.032;2023-03-12T21:27:45;4.83;;;2.43;;
40601;SDS011;26310;50.278;19.032;2023-03-12T21:32:52;10.93;;;3.87;;
40601;SDS011;26310;50.278;19.032;2023-03-12T21:37:55;5.53;;;3.43;;
40601;SDS011;26310;50.278;19.032;2023-03-12T21:42:58;5.13;;;2.97;;
40601;SDS011;26310;50.278;19.032;2023-03-12T21:48:00;8.40;;;4.30;;
40601;SDS011;26310;50.278;19.032;2023-03-12T21:53:03;7.20;;;3.03;;
40601;SDS011;26310;50.278;19.032;2023-03-12T21:58:24;5.60;;;3.73;;
40601;SDS011;26310;50.278;19.032;2023-03-12T22:03:27;5.27;;;3.47;;
40601;SDS011;26310;50.278;19.032;2023-03-12T22:08:30;5.07;;;3.37;;
40601;SDS011;26310;50.278;19.032;2023-03-12T22:13:33;8.67;;;4.40;;
40601;SDS011;26310;50.278;19.032;2023-03-12T22:18:40;4.10;;;3.43;;
40601;SDS011;26310;50.278;19.032;2023-03-12T22:23:45;8.47;;;3.47;;
40601;SDS011;26310;50.278;19.032;2023-03-12T22:28:55;9.90;;;4.60;;
40601;SDS011;26310;50.278;19.032;2023-03-12T22:33:59;5.80;;;4.00;;
40601;SDS011;26310;50.278;19.032;2023-03-12T22:39:01;6.73;;;4.10;;
40601;SDS011;26310;50.278;19.032;2023-03-12T22:44:05;6.17;;;3.70;;
40601;SDS011;26310;50.278;19.032;2023-03-12T22:49:09;7.07;;;3.17;;
40601;SDS011;26310;50.278;19.032;2023-03-12T22:54:12;4.47;;;3.43;;
40601;SDS011;26310;50.278;19.032;2023-03-12T22:59:15;3.83;;;2.33;;
40601;SDS011;26310;50.278;19.032;2023-03-12T23:04:18;3.40;;;2.47;;
40601;SDS011;26310;50.278;19.032;2023-03-12T23:09:21;4.97;;;2.77;;
40601;SDS011;26310;50.278;19.032;2023-03-12T23:14:24;2.50;;;2.30;;
40601;SDS011;26310;50.278;19.032;2023-03-12T23:19:30;2.87;;;2.03;;
40601;SDS011;26310;50.278;19.032;2023-03-12T23:24:34;4.83;;;2.43;;
40601;SDS011;26310;50.278;19.032;2023-03-12T23:29:36;7.07;;;2.83;;
40601;SDS011;26310;50.278;19.032;2023-03-12T23:34:39;3.07;;;2.00;;
40601;SDS011;26310;50.278;19.032;2023-03-12T23:39:42;3.60;;;2.30;;
40601;SDS011;26310;50.278;19.032;2023-03-12T23:44:54;2.23;;;2.03;;
40601;SDS011;26310;50.278;19.032;2023-03-12T23:49:57;2.97;;;2.30;;
40601;SDS011;26310;50.278;19.032;2023-03-12T23:55:00;3.73;;;2.50;;
